createdAt,value
2022-10-28T00:01:21.089Z,2.97
2022-10-28T00:03:50.960Z,2.75
2022-10-28T00:06:28.756Z,2.83
2022-10-28T00:08:56.107Z,3.95
2022-10-28T00:11:26.424Z,3.42
2022-10-28T00:13:56.171Z,2.83
2022-10-28T00:16:25.646Z,2.70
2022-10-28T00:18:54.395Z,2.72
2022-10-28T00:21:25.369Z,2.30
2022-10-28T00:23:52.533Z,3.00
2022-10-28T00:26:22.011Z,3.10
2022-10-28T00:28:51.474Z,3.10
2022-10-28T00:31:20.737Z,2.75
2022-10-28T00:33:47.657Z,2.55
2022-10-28T00:36:17.461Z,2.92
2022-10-28T00:38:45.777Z,2.85
2022-10-28T00:41:16.077Z,3.40
2022-10-28T00:43:55.810Z,3.20
2022-10-28T00:46:29.075Z,2.70
2022-10-28T00:49:12.742Z,2.50
2022-10-28T00:51:39.990Z,3.15
2022-10-28T00:54:07.724Z,2.67
2022-10-28T00:56:40.175Z,2.40
2022-10-28T00:59:13.529Z,3.30
2022-10-28T01:01:40.509Z,2.50
2022-10-28T01:04:09.017Z,2.53
2022-10-28T01:06:37.309Z,2.42
2022-10-28T01:09:06.987Z,3.28
2022-10-28T01:11:51.570Z,2.38
2022-10-28T01:14:33.530Z,2.92
2022-10-28T01:17:40.748Z,2.95
2022-10-28T01:20:39.778Z,3.88
2022-10-28T01:23:08.430Z,3.33
2022-10-28T01:25:50.539Z,3.22
2022-10-28T01:28:35.804Z,2.08
2022-10-28T01:31:37.310Z,2.85
2022-10-28T01:34:22.130Z,2.78
2022-10-28T01:36:57.889Z,3.00
2022-10-28T01:39:34.754Z,2.58
2022-10-28T01:42:16.654Z,4.55
2022-10-28T01:44:47.967Z,2.85
2022-10-28T01:48:00.237Z,2.53
2022-10-28T01:50:59.727Z,3.05
2022-10-28T01:53:33.632Z,2.28
2022-10-28T01:56:06.119Z,2.10
2022-10-28T01:58:36.126Z,3.00
2022-10-28T02:01:09.123Z,3.15
2022-10-28T02:03:36.487Z,2.88
2022-10-28T02:06:06.926Z,3.05
2022-10-28T02:08:52.296Z,3.25
2022-10-28T02:11:22.085Z,2.60
2022-10-28T02:13:59.349Z,2.60
2022-10-28T02:16:50.050Z,3.10
2022-10-28T02:19:32.134Z,2.30
2022-10-28T02:22:14.174Z,3.25
2022-10-28T02:25:19.272Z,2.38
2022-10-28T02:28:24.271Z,2.80
2022-10-28T02:31:24.510Z,2.40
2022-10-28T02:34:12.537Z,2.10
2022-10-28T02:36:44.165Z,2.95
2022-10-28T02:39:11.668Z,3.10
2022-10-28T02:41:52.952Z,2.65
2022-10-28T02:44:26.605Z,2.22
2022-10-28T02:49:23.248Z,2.25
2022-10-28T02:51:55.896Z,2.80
2022-10-28T02:54:46.063Z,2.45
2022-10-28T02:57:16.190Z,2.17
2022-10-28T02:59:44.515Z,3.15
2022-10-28T03:02:11.684Z,3.42
2022-10-28T03:04:39.759Z,2.83
2022-10-28T03:07:10.142Z,2.30
2022-10-28T03:09:38.629Z,2.58
2022-10-28T03:12:08.886Z,2.50
2022-10-28T03:14:38.028Z,2.10
2022-10-28T03:17:07.897Z,2.33
2022-10-28T03:19:38.856Z,2.40
2022-10-28T03:22:06.373Z,3.25
2022-10-28T03:24:38.190Z,2.00
2022-10-28T03:27:12.319Z,2.88
2022-10-28T03:29:45.699Z,2.97
2022-10-28T03:32:14.113Z,2.28
2022-10-28T03:34:41.384Z,2.80
2022-10-28T03:37:10.517Z,2.53
2022-10-28T03:39:37.378Z,2.28
2022-10-28T03:42:05.359Z,2.55
2022-10-28T03:44:33.542Z,2.47
2022-10-28T03:47:00.241Z,2.75
2022-10-28T03:49:29.140Z,2.75
2022-10-28T03:51:56.002Z,2.58
2022-10-28T03:54:22.722Z,3.00
2022-10-28T03:56:49.631Z,2.60
2022-10-28T03:59:19.304Z,2.78
2022-10-28T04:01:47.252Z,2.85
2022-10-28T04:04:14.797Z,2.83
2022-10-28T04:06:41.535Z,2.50
2022-10-28T04:09:08.384Z,2.63
2022-10-28T04:11:35.607Z,2.92
2022-10-28T04:14:02.589Z,2.67
2022-10-28T04:16:29.551Z,1.95
2022-10-28T04:18:56.551Z,2.65
2022-10-28T04:21:25.285Z,2.80
2022-10-28T04:23:52.172Z,3.17
2022-10-28T04:26:19.055Z,3.38
2022-10-28T04:28:48.674Z,2.47
2022-10-28T04:31:16.375Z,3.03
2022-10-28T04:33:46.452Z,3.47
2022-10-28T04:36:14.711Z,2.70
2022-10-28T04:38:41.606Z,2.72
2022-10-28T04:41:13.615Z,2.63
2022-10-28T04:43:43.188Z,3.33
2022-10-28T04:46:10.072Z,3.17
2022-10-28T04:48:36.919Z,2.95
2022-10-28T04:51:07.513Z,2.75
2022-10-28T04:53:41.052Z,2.70
2022-10-28T04:56:24.425Z,2.28
2022-10-28T04:58:51.252Z,2.85
2022-10-28T05:01:24.292Z,3.03
2022-10-28T05:03:51.387Z,3.15
2022-10-28T05:06:19.909Z,3.90
2022-10-28T05:08:46.866Z,2.63
2022-10-28T05:11:14.917Z,2.58
2022-10-28T05:13:44.040Z,3.00
2022-10-28T05:16:14.527Z,2.30
2022-10-28T05:18:41.470Z,4.13
2022-10-28T05:21:09.460Z,2.70
2022-10-28T05:23:36.570Z,2.95
2022-10-28T05:26:03.517Z,2.88
2022-10-28T05:28:30.410Z,3.17
2022-10-28T05:30:57.372Z,3.38
2022-10-28T05:33:24.710Z,3.00
2022-10-28T05:35:53.634Z,2.20
2022-10-28T05:38:20.890Z,3.45
2022-10-28T05:40:47.711Z,3.40
2022-10-28T05:43:14.623Z,2.38
2022-10-28T05:45:44.261Z,3.28
2022-10-28T05:48:12.129Z,2.40
2022-10-28T05:50:39.011Z,2.88
2022-10-28T05:53:05.858Z,3.05
2022-10-28T05:55:32.811Z,3.17
2022-10-28T05:58:00.009Z,3.00
2022-10-28T06:00:27.364Z,2.80
2022-10-28T06:03:09.187Z,3.50
2022-10-28T06:05:46.066Z,2.72
2022-10-28T06:08:13.781Z,3.33
2022-10-28T06:10:41.230Z,3.42
2022-10-28T06:13:09.686Z,3.80
2022-10-28T06:15:36.508Z,2.78
2022-10-28T06:18:05.006Z,3.40
2022-10-28T06:20:35.313Z,3.22
2022-10-28T06:23:02.338Z,2.80
2022-10-28T06:25:29.323Z,3.55
2022-10-28T06:27:57.654Z,4.57
2022-10-28T06:30:26.352Z,2.65
2022-10-28T06:32:56.830Z,3.30
2022-10-28T06:35:23.819Z,4.07
2022-10-28T06:37:56.759Z,3.83
2022-10-28T06:40:25.182Z,3.13
2022-10-28T06:42:59.651Z,3.42
2022-10-28T06:45:32.482Z,4.13
2022-10-28T06:48:03.686Z,4.83
2022-10-28T06:50:31.321Z,3.83
2022-10-28T06:52:59.063Z,3.70
2022-10-28T06:55:32.897Z,3.47
2022-10-28T06:58:01.642Z,3.63
2022-10-28T07:02:58.525Z,3.60
2022-10-28T07:05:27.731Z,4.32
2022-10-28T07:07:55.384Z,3.50
2022-10-28T07:10:25.489Z,2.70
2022-10-28T07:12:53.440Z,3.25
2022-10-28T07:15:24.592Z,3.58
2022-10-28T07:18:30.957Z,3.90
2022-10-28T07:21:02.228Z,2.85
2022-10-28T07:23:32.537Z,2.45
2022-10-28T07:25:59.516Z,2.72
2022-10-28T07:28:29.414Z,2.95
2022-10-28T07:31:01.331Z,3.47
2022-10-28T07:33:28.417Z,3.03
2022-10-28T07:35:55.731Z,3.88
2022-10-28T07:38:23.835Z,3.05
2022-10-28T07:40:51.188Z,2.83
2022-10-28T07:43:18.647Z,2.60
2022-10-28T07:45:46.512Z,3.03
2022-10-28T07:48:13.729Z,3.15
2022-10-28T07:50:41.629Z,2.63
2022-10-28T07:53:08.489Z,3.15
2022-10-28T07:55:37.376Z,3.25
2022-10-28T07:58:04.167Z,3.70
2022-10-28T08:00:32.235Z,2.70
2022-10-28T08:03:04.974Z,3.42
2022-10-28T08:05:31.836Z,3.43
2022-10-28T08:07:58.637Z,2.83
2022-10-28T08:10:26.696Z,3.65
2022-10-28T08:12:57.089Z,4.25
2022-10-28T08:15:24.643Z,3.20
2022-10-28T08:17:52.985Z,4.47
2022-10-28T08:20:20.824Z,3.17
2022-10-28T08:22:47.959Z,3.28
2022-10-28T08:25:14.914Z,3.97
2022-10-28T08:27:42.665Z,3.63
2022-10-28T08:30:10.289Z,4.90
2022-10-28T08:32:37.095Z,3.00
2022-10-28T08:35:04.228Z,3.22
2022-10-28T08:37:31.166Z,3.33
2022-10-28T08:40:05.075Z,3.65
2022-10-28T08:42:47.382Z,3.70
2022-10-28T08:45:24.931Z,3.63
2022-10-28T08:48:19.472Z,3.55
2022-10-28T08:50:58.041Z,3.78
2022-10-28T08:53:49.641Z,3.35
2022-10-28T08:56:25.540Z,3.08
2022-10-28T08:58:54.688Z,3.08
2022-10-28T09:01:41.579Z,2.92
2022-10-28T09:04:33.735Z,3.40
2022-10-28T09:07:02.251Z,3.08
2022-10-28T09:09:29.265Z,3.05
2022-10-28T09:12:09.172Z,3.33
2022-10-28T09:14:53.972Z,2.30
2022-10-28T09:17:29.079Z,2.92
2022-10-28T09:20:09.438Z,3.45
2022-10-28T09:22:58.057Z,2.63
2022-10-28T09:25:42.493Z,2.45
2022-10-28T09:28:33.052Z,3.13
2022-10-28T09:31:07.581Z,2.33
2022-10-28T09:33:53.176Z,2.95
2022-10-28T09:36:28.971Z,2.95
2022-10-28T09:38:58.568Z,3.90
2022-10-28T09:41:31.104Z,3.42
2022-10-28T09:44:29.689Z,3.45
2022-10-28T09:46:59.172Z,2.50
2022-10-28T09:49:30.977Z,3.03
2022-10-28T09:52:19.035Z,2.67
2022-10-28T09:54:52.343Z,3.33
2022-10-28T09:57:30.083Z,2.20
2022-10-28T09:59:57.442Z,2.40
2022-10-28T10:02:30.756Z,2.35
2022-10-28T10:04:59.952Z,2.35
2022-10-28T10:07:51.018Z,2.95
2022-10-28T10:10:28.745Z,2.25
2022-10-28T10:13:02.774Z,2.28
2022-10-28T10:15:38.255Z,1.63
2022-10-28T10:18:07.233Z,1.95
2022-10-28T10:21:00.791Z,1.80
2022-10-28T10:23:29.150Z,2.97
2022-10-28T10:26:06.628Z,2.30
2022-10-28T10:28:43.692Z,2.33
2022-10-28T10:31:22.913Z,2.55
2022-10-28T10:33:54.479Z,2.00
2022-10-28T10:36:28.175Z,1.95
2022-10-28T10:38:57.358Z,1.92
2022-10-28T10:41:35.405Z,2.17
2022-10-28T10:44:22.433Z,2.83
2022-10-28T10:47:05.969Z,1.90
2022-10-28T10:49:35.046Z,2.42
2022-10-28T10:52:07.499Z,2.40
2022-10-28T10:54:36.109Z,2.20
2022-10-28T10:57:10.028Z,1.88
2022-10-28T10:59:37.799Z,2.45
2022-10-28T11:02:19.519Z,2.40
2022-10-28T11:04:55.106Z,2.33
2022-10-28T11:07:22.257Z,1.95
2022-10-28T11:09:50.924Z,2.00
2022-10-28T11:12:30.463Z,2.38
2022-10-28T11:15:00.040Z,1.90
2022-10-28T11:17:37.920Z,2.70
2022-10-28T11:20:25.513Z,2.10
2022-10-28T11:23:31.502Z,3.22
2022-10-28T11:26:05.697Z,2.13
2022-10-28T11:28:47.528Z,2.25
2022-10-28T11:31:44.376Z,2.60
2022-10-28T11:34:39.180Z,2.42
2022-10-28T11:37:12.242Z,2.65
2022-10-28T11:40:00.754Z,2.13
2022-10-28T11:43:04.563Z,2.70
2022-10-28T11:45:53.811Z,2.10
2022-10-28T11:48:29.528Z,2.17
2022-10-28T11:51:19.334Z,2.08
2022-10-28T11:54:10.577Z,2.33
2022-10-28T11:56:43.160Z,2.15
2022-10-28T11:59:12.738Z,2.58
2022-10-28T12:02:00.446Z,2.40
2022-10-28T12:04:34.344Z,2.05
2022-10-28T12:07:13.024Z,1.85
2022-10-28T12:09:57.824Z,2.08
2022-10-28T12:12:41.190Z,2.05
2022-10-28T12:15:26.304Z,2.10
2022-10-28T12:18:16.028Z,2.00
2022-10-28T12:20:55.644Z,2.38
2022-10-28T12:23:24.736Z,2.38
2022-10-28T12:25:57.664Z,2.60
2022-10-28T12:28:46.756Z,2.30
2022-10-28T12:31:26.425Z,2.30
2022-10-28T12:33:59.189Z,1.92
2022-10-28T12:36:41.444Z,2.78
2022-10-28T12:39:31.109Z,1.70
2022-10-28T12:42:23.947Z,2.10
2022-10-28T12:44:57.012Z,1.75
2022-10-28T12:47:59.796Z,1.90
2022-10-28T12:50:50.668Z,1.92
2022-10-28T12:53:39.662Z,1.88
2022-10-28T12:56:18.331Z,2.40
2022-10-28T12:59:14.316Z,2.03
2022-10-28T13:01:43.648Z,2.20
2022-10-28T13:04:13.059Z,2.92
2022-10-28T13:07:19.683Z,1.98
2022-10-28T13:10:06.664Z,1.73
2022-10-28T13:12:59.879Z,2.30
2022-10-28T13:15:54.041Z,2.25
2022-10-28T13:18:59.298Z,2.35
2022-10-28T13:21:31.626Z,2.58
2022-10-28T13:24:28.103Z,1.98
2022-10-28T13:26:55.659Z,1.63
2022-10-28T13:29:32.256Z,1.92
2022-10-28T13:32:00.466Z,1.90
2022-10-28T13:34:36.884Z,1.63
2022-10-28T13:37:06.866Z,2.78
2022-10-28T13:39:36.299Z,1.55
2022-10-28T13:42:15.893Z,1.98
2022-10-28T13:45:03.532Z,1.67
2022-10-28T13:47:31.739Z,1.88
2022-10-28T13:50:09.295Z,1.60
2022-10-28T13:52:38.479Z,2.17
2022-10-28T13:55:27.911Z,1.63
2022-10-28T13:58:04.207Z,2.33
2022-10-28T14:00:30.981Z,1.90
2022-10-28T14:03:00.551Z,2.03
2022-10-28T14:05:37.163Z,2.13
2022-10-28T14:08:10.037Z,2.30
2022-10-28T14:10:38.455Z,2.17
2022-10-28T14:13:19.134Z,1.80
2022-10-28T14:15:50.423Z,1.42
2022-10-28T14:21:16.394Z,2.22
2022-10-28T14:24:29.351Z,2.70
2022-10-28T14:31:14.644Z,2.08
2022-10-28T14:34:33.590Z,2.33
2022-10-28T14:37:22.266Z,1.85
2022-10-28T14:40:13.792Z,1.75
2022-10-28T14:42:57.748Z,2.30
2022-10-28T14:45:54.563Z,2.10
2022-10-28T14:51:38.813Z,1.77
2022-10-28T14:54:12.631Z,1.83
2022-10-28T14:56:41.040Z,2.28
2022-10-28T14:59:46.835Z,2.92
2022-10-28T15:02:21.657Z,2.83
2022-10-28T15:05:18.125Z,2.80
2022-10-28T15:07:47.654Z,3.03
2022-10-28T15:10:22.380Z,2.17
2022-10-28T15:12:50.078Z,2.28
2022-10-28T15:15:25.971Z,2.40
2022-10-28T15:17:53.593Z,2.42
2022-10-28T15:20:28.311Z,2.30
2022-10-28T15:23:41.025Z,2.55
2022-10-28T15:26:16.755Z,2.40
2022-10-28T15:29:13.191Z,1.92
2022-10-28T15:32:13.832Z,2.45
2022-10-28T15:35:35.032Z,2.13
2022-10-28T15:38:28.865Z,2.65
2022-10-28T15:43:37.701Z,3.22
2022-10-28T15:46:17.078Z,2.78
2022-10-28T15:59:29.910Z,2.35
2022-10-28T16:02:45.936Z,2.75
2022-10-28T16:05:34.542Z,2.60
2022-10-28T16:08:38.261Z,2.88
2022-10-28T16:15:02.292Z,2.50
2022-10-28T16:20:30.715Z,2.80
2022-10-28T16:39:52.206Z,2.80
2022-10-28T16:42:21.602Z,3.42
2022-10-28T16:48:58.101Z,3.75
2022-10-28T16:51:24.980Z,2.60
2022-10-28T16:53:52.041Z,3.85
2022-10-28T16:56:46.559Z,3.75
2022-10-28T17:03:16.043Z,3.10
2022-10-28T17:05:44.575Z,3.00
2022-10-28T17:08:42.559Z,3.75
2022-10-28T17:23:21.950Z,5.18
2022-10-28T17:29:30.908Z,3.65
2022-10-28T17:39:01.418Z,4.13
2022-10-28T17:42:26.475Z,4.47
2022-10-28T17:50:59.032Z,4.28
2022-10-28T17:53:29.888Z,4.22
2022-10-28T17:56:02.563Z,4.50
2022-10-28T17:58:41.684Z,4.33
2022-10-28T18:02:09.576Z,3.88
2022-10-28T18:04:51.741Z,4.43
2022-10-28T18:07:19.827Z,3.28
2022-10-28T18:09:46.582Z,3.63
2022-10-28T18:12:42.131Z,3.55
2022-10-28T18:15:10.851Z,4.15
2022-10-28T18:17:50.586Z,3.67
2022-10-28T18:20:19.635Z,4.18
2022-10-28T18:22:49.806Z,3.55
2022-10-28T18:25:31.396Z,3.13
2022-10-28T18:28:13.218Z,4.00
2022-10-28T18:30:54.829Z,3.92
2022-10-28T18:34:23.652Z,3.67
2022-10-28T18:37:48.253Z,3.30
2022-10-28T18:40:28.085Z,4.65
2022-10-28T18:43:09.579Z,3.75
2022-10-28T18:45:47.546Z,3.35
2022-10-28T18:48:29.418Z,3.15
2022-10-28T18:51:12.676Z,3.00
2022-10-28T18:54:14.483Z,3.60
2022-10-28T18:57:19.420Z,2.97
2022-10-28T19:00:18.682Z,2.95
2022-10-28T19:02:48.204Z,3.17
2022-10-28T19:05:24.422Z,3.20
2022-10-28T19:08:19.455Z,3.00
2022-10-28T19:11:13.370Z,3.20
2022-10-28T19:13:42.353Z,4.70
2022-10-28T19:16:09.973Z,4.20
2022-10-28T19:18:38.484Z,3.97
2022-10-28T19:21:12.826Z,4.03
2022-10-28T19:23:40.208Z,3.80
2022-10-28T19:26:07.995Z,4.13
2022-10-28T19:28:46.152Z,3.88
2022-10-28T19:31:18.601Z,4.25
2022-10-28T19:33:46.771Z,4.93
2022-10-28T19:36:18.509Z,4.57
2022-10-28T19:38:47.027Z,5.00
2022-10-28T19:41:19.535Z,4.95
2022-10-28T19:43:47.326Z,4.40
2022-10-28T19:46:16.090Z,4.35
2022-10-28T19:48:46.130Z,3.90
2022-10-28T19:51:18.630Z,4.15
2022-10-28T19:53:50.113Z,2.92
2022-10-28T19:56:20.400Z,3.08
2022-10-28T19:58:51.324Z,3.47
2022-10-28T20:01:23.325Z,3.28
2022-10-28T20:03:52.233Z,3.30
2022-10-28T20:06:23.507Z,3.15
2022-10-28T20:08:50.754Z,3.28
2022-10-28T20:11:26.063Z,3.30
2022-10-28T20:13:59.488Z,3.15
2022-10-28T20:16:27.458Z,3.15
2022-10-28T20:18:56.067Z,3.38
2022-10-28T20:21:27.781Z,2.70
2022-10-28T20:23:57.025Z,3.53
2022-10-28T20:26:29.949Z,3.13
2022-10-28T20:28:57.623Z,3.60
2022-10-28T20:31:27.059Z,3.08
2022-10-28T20:33:56.921Z,3.22
2022-10-28T20:36:31.474Z,3.10
2022-10-28T20:39:12.456Z,3.13
2022-10-28T20:41:40.752Z,2.92
2022-10-28T20:44:08.224Z,3.40
2022-10-28T20:46:35.638Z,4.07
2022-10-28T20:49:04.608Z,3.60
2022-10-28T20:51:32.743Z,3.65
2022-10-28T20:53:59.741Z,3.35
2022-10-28T20:56:29.567Z,2.90
2022-10-28T20:58:58.174Z,3.60
2022-10-28T21:01:34.571Z,2.80
2022-10-28T21:04:05.870Z,3.38
2022-10-28T21:06:34.957Z,4.10
2022-10-28T21:09:01.810Z,3.78
2022-10-28T21:11:28.929Z,3.45
2022-10-28T21:13:58.248Z,4.00
2022-10-28T21:16:28.694Z,3.40
2022-10-28T21:18:55.626Z,3.50
2022-10-28T21:21:24.140Z,3.78
2022-10-28T21:23:51.217Z,2.80
2022-10-28T21:26:18.020Z,3.53
2022-10-28T21:28:49.448Z,3.95
2022-10-28T21:31:18.331Z,4.85
2022-10-28T21:33:46.562Z,2.80
2022-10-28T21:36:18.768Z,4.18
2022-10-28T21:38:46.632Z,3.72
2022-10-28T21:41:17.605Z,3.35
2022-10-28T21:43:49.187Z,4.70
2022-10-28T21:46:19.842Z,4.13
2022-10-28T21:48:47.149Z,4.32
2022-10-28T21:51:16.323Z,5.30
2022-10-28T21:53:45.735Z,3.88
2022-10-28T21:56:17.550Z,4.53
2022-10-28T21:58:46.229Z,4.20
2022-10-28T22:01:22.291Z,3.28
2022-10-28T22:03:51.437Z,3.72
2022-10-28T22:06:18.227Z,3.45
2022-10-28T22:08:45.157Z,3.85
2022-10-28T22:11:14.459Z,3.97
2022-10-28T22:13:41.760Z,4.50
2022-10-28T22:16:12.539Z,3.97
2022-10-28T22:18:39.934Z,4.40
2022-10-28T22:21:16.950Z,3.55
2022-10-28T22:23:44.083Z,3.72
2022-10-28T22:26:17.537Z,2.90
2022-10-28T22:28:44.558Z,3.70
2022-10-28T22:31:15.114Z,3.22
2022-10-28T22:33:42.364Z,3.60
2022-10-28T22:36:14.492Z,4.18
2022-10-28T22:38:41.743Z,4.38
2022-10-28T22:41:22.865Z,3.42
2022-10-28T22:43:52.240Z,3.72
2022-10-28T22:46:19.891Z,3.47
2022-10-28T22:48:50.022Z,4.10
2022-10-28T22:51:18.358Z,3.58
2022-10-28T22:53:48.365Z,3.63
2022-10-28T22:56:21.304Z,3.55
2022-10-28T22:58:52.013Z,3.35
2022-10-28T23:01:19.908Z,3.97
2022-10-28T23:03:50.234Z,2.78
2022-10-28T23:06:19.193Z,3.63
2022-10-28T23:08:46.023Z,4.22
2022-10-28T23:11:13.975Z,3.50
2022-10-28T23:13:40.852Z,3.53
2022-10-28T23:16:09.749Z,3.92
2022-10-28T23:18:37.191Z,3.72
2022-10-28T23:21:13.415Z,3.33
2022-10-28T23:23:41.578Z,3.78
2022-10-28T23:26:11.838Z,3.13
2022-10-28T23:28:39.661Z,3.55
2022-10-28T23:31:07.986Z,3.65
2022-10-28T23:33:35.356Z,3.17
2022-10-28T23:36:05.718Z,3.67
2022-10-28T23:38:33.282Z,3.03
2022-10-28T23:41:09.806Z,3.65
2022-10-28T23:43:44.040Z,3.47
2022-10-28T23:46:37.972Z,3.58
2022-10-28T23:49:13.065Z,3.08
2022-10-28T23:51:42.356Z,3.63
2022-10-28T23:54:14.523Z,3.83
2022-10-28T23:57:43.304Z,3.35
